createdAt,value
2018-07-25T00:02:12.149Z,64.20
2018-07-25T00:04:40.425Z,64.60
2018-07-25T00:07:08.729Z,64.50
2018-07-25T00:12:05.032Z,65.20
2018-07-25T00:14:33.318Z,65.00
2018-07-25T00:17:01.582Z,64.60
2018-07-25T00:19:29.856Z,64.80
2018-07-25T00:21:58.129Z,64.90
2018-07-25T00:27:29.735Z,65.10
2018-07-25T00:29:58.052Z,65.10
2018-07-25T00:32:26.376Z,65.10
2018-07-25T00:34:54.680Z,65.70
2018-07-25T00:37:23.033Z,65.40
2018-07-25T00:39:51.344Z,65.70
2018-07-25T00:42:19.633Z,65.60
2018-07-25T00:44:47.956Z,65.60
2018-07-25T00:47:16.252Z,65.80
2018-07-25T00:49:44.564Z,66.00
2018-07-25T00:52:12.887Z,66.10
2018-07-25T00:54:41.199Z,66.40
2018-07-25T00:57:09.493Z,66.20
2018-07-25T00:59:37.795Z,66.40
2018-07-25T01:02:06.184Z,66.30
2018-07-25T01:04:34.500Z,66.30
2018-07-25T01:07:02.840Z,66.50
2018-07-25T01:09:31.172Z,66.40
2018-07-25T01:12:07.789Z,66.70
2018-07-25T01:14:36.193Z,66.70
2018-07-25T01:17:04.493Z,66.70
2018-07-25T01:19:32.930Z,66.50
2018-07-25T01:22:01.310Z,66.80
2018-07-25T01:24:29.631Z,67.00
2018-07-25T01:27:04.812Z,67.00
2018-07-25T01:29:33.368Z,67.30
2018-07-25T01:32:01.816Z,66.90
2018-07-25T01:34:30.226Z,67.40
2018-07-25T01:36:58.582Z,66.90
2018-07-25T01:39:26.918Z,67.40
2018-07-25T01:41:55.328Z,67.00
2018-07-25T01:44:24.240Z,67.30
2018-07-25T01:46:53.171Z,67.10
2018-07-25T01:49:21.566Z,66.90
2018-07-25T01:51:49.935Z,67.60
2018-07-25T01:54:18.334Z,67.20
2018-07-25T01:56:46.696Z,67.30
2018-07-25T01:59:15.104Z,67.60
2018-07-25T02:01:43.450Z,67.90
2018-07-25T02:04:11.806Z,67.70
2018-07-25T02:06:40.180Z,68.20
2018-07-25T02:09:10.701Z,67.90
2018-07-25T02:11:39.466Z,67.90
2018-07-25T02:14:07.845Z,67.90
2018-07-25T02:16:36.236Z,67.90
2018-07-25T02:19:05.306Z,68.40
2018-07-25T02:21:33.660Z,68.70
2018-07-25T02:24:02.022Z,68.30
2018-07-25T02:26:30.332Z,69.10
2018-07-25T02:28:58.836Z,68.80
2018-07-25T02:31:27.256Z,69.00
2018-07-25T02:34:00.934Z,68.80
2018-07-25T02:36:29.286Z,68.80
2018-07-25T02:38:57.658Z,68.80
2018-07-25T02:41:26.201Z,68.80
2018-07-25T02:43:54.754Z,68.90
2018-07-25T02:46:22.994Z,69.20
2018-07-25T02:48:51.323Z,69.00
2018-07-25T02:51:19.692Z,69.30
2018-07-25T02:53:47.980Z,69.20
2018-07-25T02:56:16.326Z,69.30
2018-07-25T02:58:44.810Z,69.40
2018-07-25T03:01:13.175Z,68.90
2018-07-25T03:03:41.476Z,68.90
2018-07-25T03:06:09.815Z,68.90
2018-07-25T03:08:38.117Z,69.00
2018-07-25T03:11:06.495Z,69.30
2018-07-25T03:13:34.799Z,69.30
2018-07-25T03:16:05.219Z,69.50
2018-07-25T03:18:33.560Z,69.30
2018-07-25T03:21:14.329Z,69.30
2018-07-25T03:23:42.611Z,69.90
2018-07-25T03:26:10.907Z,69.60
2018-07-25T03:28:39.205Z,69.60
2018-07-25T03:31:07.582Z,69.50
2018-07-25T03:33:36.425Z,69.60
2018-07-25T03:36:04.742Z,69.60
2018-07-25T03:38:33.225Z,69.60
2018-07-25T03:41:01.703Z,70.00
2018-07-25T03:43:30.039Z,69.80
2018-07-25T03:45:58.361Z,69.90
2018-07-25T03:48:26.653Z,70.30
2018-07-25T03:50:55.015Z,69.90
2018-07-25T03:53:23.384Z,69.60
2018-07-25T03:55:51.746Z,70.10
2018-07-25T03:58:20.073Z,70.20
2018-07-25T04:00:48.483Z,70.00
2018-07-25T04:03:16.883Z,69.80
2018-07-25T04:05:45.223Z,69.80
2018-07-25T04:08:13.559Z,70.30
2018-07-25T04:10:46.120Z,70.10
2018-07-25T04:13:14.502Z,70.30
2018-07-25T04:15:42.796Z,70.50
2018-07-25T04:18:11.117Z,70.70
2018-07-25T04:20:40.209Z,70.60
2018-07-25T04:23:08.676Z,70.40
2018-07-25T04:25:37.032Z,70.70
2018-07-25T04:28:05.512Z,70.50
2018-07-25T04:30:33.833Z,70.40
2018-07-25T04:33:02.176Z,70.30
2018-07-25T04:35:31.775Z,70.50
2018-07-25T04:38:00.093Z,70.50
2018-07-25T04:40:28.500Z,70.50
2018-07-25T04:42:56.846Z,71.00
2018-07-25T04:45:25.220Z,70.90
2018-07-25T04:47:53.547Z,70.70
2018-07-25T04:50:21.875Z,71.40
2018-07-25T04:52:50.298Z,70.30
2018-07-25T04:55:18.649Z,71.30
2018-07-25T04:57:46.990Z,70.60
2018-07-25T05:00:15.351Z,70.80
2018-07-25T05:02:43.810Z,70.90
2018-07-25T05:05:12.203Z,71.10
2018-07-25T05:07:40.511Z,70.90
2018-07-25T05:10:08.859Z,70.60
2018-07-25T05:12:37.290Z,70.60
2018-07-25T05:15:06.584Z,70.00
2018-07-25T05:17:35.022Z,70.00
2018-07-25T05:20:03.341Z,70.30
2018-07-25T05:22:31.672Z,70.30
2018-07-25T05:25:00.041Z,69.80
2018-07-25T05:27:28.374Z,69.90
2018-07-25T05:29:56.772Z,70.00
2018-07-25T05:32:25.124Z,69.20
2018-07-25T05:34:53.501Z,70.00
2018-07-25T05:37:22.059Z,69.00
2018-07-25T05:39:50.387Z,68.90
2018-07-25T05:42:18.687Z,68.30
2018-07-25T05:44:47.017Z,68.50
2018-07-25T05:47:15.434Z,69.00
2018-07-25T05:49:43.740Z,68.60
2018-07-25T05:52:12.133Z,68.50
2018-07-25T05:54:40.465Z,69.00
2018-07-25T05:57:09.058Z,69.00
2018-07-25T05:59:37.399Z,68.30
2018-07-25T06:02:05.753Z,68.10
2018-07-25T06:04:34.044Z,67.60
2018-07-25T06:07:02.455Z,67.40
2018-07-25T06:09:30.807Z,68.00
2018-07-25T06:11:59.169Z,67.60
2018-07-25T06:14:27.542Z,66.90
2018-07-25T06:16:55.962Z,66.90
2018-07-25T06:19:24.356Z,67.60
2018-07-25T06:21:52.770Z,67.30
2018-07-25T06:24:21.197Z,66.00
2018-07-25T06:26:49.592Z,65.30
2018-07-25T06:29:18.105Z,64.80
2018-07-25T06:31:46.491Z,61.80
2018-07-25T06:34:14.853Z,58.50
2018-07-25T06:36:43.211Z,55.20
2018-07-25T06:39:12.970Z,53.00
2018-07-25T06:41:42.420Z,51.60
2018-07-25T06:44:10.796Z,50.60
2018-07-25T06:46:39.290Z,50.10
2018-07-25T06:49:08.435Z,49.30
2018-07-25T06:51:36.962Z,48.00
2018-07-25T06:54:05.466Z,47.90
2018-07-25T06:56:33.807Z,48.30
2018-07-25T06:59:02.306Z,46.50
2018-07-25T07:01:31.699Z,45.30
2018-07-25T07:04:00.019Z,44.90
2018-07-25T07:06:28.448Z,43.10
2018-07-25T07:08:56.876Z,44.00
2018-07-25T07:11:25.379Z,45.60
2018-07-25T07:13:53.855Z,47.40
2018-07-25T07:16:22.199Z,47.00
2018-07-25T07:18:50.690Z,47.20
2018-07-25T07:21:19.115Z,47.50
2018-07-25T07:23:47.696Z,48.50
2018-07-25T07:26:16.077Z,48.30
2018-07-25T07:28:44.443Z,47.30
2018-07-25T07:31:12.848Z,45.70
2018-07-25T07:33:41.190Z,43.10
2018-07-25T07:36:09.604Z,40.40
2018-07-25T07:38:38.141Z,38.60
2018-07-25T07:41:07.068Z,35.70
2018-07-25T07:43:35.468Z,35.20
2018-07-25T07:46:03.915Z,33.80
2018-07-25T07:48:32.335Z,34.00
2018-07-25T07:51:00.912Z,35.10
2018-07-25T07:53:29.357Z,36.40
2018-07-25T07:55:57.762Z,37.00
2018-07-25T07:58:26.116Z,37.10
2018-07-25T08:00:54.511Z,34.40
2018-07-25T08:03:22.979Z,33.80
2018-07-25T08:05:51.374Z,31.50
2018-07-25T08:08:19.933Z,30.40
2018-07-25T08:10:48.341Z,30.00
2018-07-25T08:13:16.659Z,28.60
2018-07-25T08:15:45.016Z,28.20
2018-07-25T08:18:13.435Z,28.00
2018-07-25T08:20:41.817Z,28.50
2018-07-25T08:23:10.116Z,31.90
2018-07-25T08:25:38.457Z,36.30
2018-07-25T08:28:07.045Z,38.30
2018-07-25T08:30:35.405Z,41.30
2018-07-25T08:33:03.827Z,39.30
2018-07-25T08:35:32.199Z,41.20
2018-07-25T08:38:00.609Z,41.50
2018-07-25T08:40:28.928Z,41.10
2018-07-25T08:42:57.410Z,40.00
2018-07-25T08:45:25.649Z,40.80
2018-07-25T08:47:53.928Z,43.50
2018-07-25T08:50:22.206Z,40.50
2018-07-25T08:52:50.530Z,40.10
2018-07-25T08:55:18.769Z,37.70
2018-07-25T08:57:47.179Z,39.00
2018-07-25T09:00:15.514Z,41.20
2018-07-25T09:02:43.793Z,38.80
2018-07-25T09:05:12.132Z,38.00
2018-07-25T09:07:40.487Z,39.30
2018-07-25T09:10:08.719Z,39.80
2018-07-25T09:12:37.157Z,38.70
2018-07-25T09:15:06.725Z,38.00
2018-07-25T09:17:34.934Z,37.90
2018-07-25T09:20:03.316Z,37.40
2018-07-25T09:22:31.656Z,38.10
2018-07-25T09:25:00.042Z,37.20
2018-07-25T09:27:28.416Z,38.00
2018-07-25T09:29:56.877Z,39.10
2018-07-25T09:32:25.279Z,37.40
2018-07-25T09:34:53.603Z,38.20
2018-07-25T09:37:22.035Z,36.70
2018-07-25T09:39:56.940Z,36.70
2018-07-25T09:42:28.010Z,36.00
2018-07-25T09:44:58.560Z,35.20
2018-07-25T09:47:28.288Z,35.40
2018-07-25T09:50:01.629Z,35.60
2018-07-25T09:52:34.288Z,35.90
2018-07-25T09:55:04.401Z,34.90
2018-07-25T09:57:35.214Z,35.20
2018-07-25T10:00:16.975Z,37.10
2018-07-25T10:02:45.582Z,35.50
2018-07-25T10:05:15.593Z,35.50
2018-07-25T10:07:43.977Z,35.40
2018-07-25T10:10:18.560Z,36.70
2018-07-25T10:12:47.012Z,35.40
2018-07-25T10:15:15.413Z,35.40
2018-07-25T10:17:43.591Z,35.30
2018-07-25T10:20:11.859Z,36.50
2018-07-25T10:22:40.122Z,36.50
2018-07-25T10:25:08.446Z,36.40
2018-07-25T10:27:36.780Z,35.20
2018-07-25T10:30:05.542Z,35.40
2018-07-25T10:32:33.774Z,36.40
2018-07-25T10:35:02.093Z,36.00
2018-07-25T10:37:30.340Z,36.30
2018-07-25T10:39:58.596Z,35.60
2018-07-25T10:42:26.923Z,35.80
2018-07-25T10:44:55.151Z,34.70
2018-07-25T10:47:23.438Z,34.60
2018-07-25T10:49:51.741Z,33.40
2018-07-25T10:52:20.013Z,35.60
2018-07-25T10:54:48.353Z,35.50
2018-07-25T10:57:16.661Z,36.50
2018-07-25T10:59:45.004Z,36.40
2018-07-25T11:02:13.628Z,34.10
2018-07-25T11:04:41.933Z,35.00
2018-07-25T11:07:10.288Z,34.20
2018-07-25T11:09:39.641Z,35.40
2018-07-25T11:12:07.881Z,35.20
2018-07-25T11:14:36.170Z,35.00
2018-07-25T11:17:04.456Z,34.00
2018-07-25T11:19:32.700Z,33.50
2018-07-25T11:22:00.980Z,35.10
2018-07-25T11:24:29.324Z,33.60
2018-07-25T11:26:57.806Z,34.70
2018-07-25T11:29:26.156Z,32.30
2018-07-25T11:31:54.421Z,33.70
2018-07-25T11:34:22.709Z,33.40
2018-07-25T11:36:51.215Z,34.40
2018-07-25T11:39:19.628Z,35.00
2018-07-25T11:41:48.412Z,33.50
2018-07-25T11:44:16.804Z,34.00
2018-07-25T11:46:48.320Z,34.40
2018-07-25T11:49:16.611Z,34.40
2018-07-25T11:54:13.096Z,34.70
2018-07-25T11:56:41.393Z,33.40
2018-07-25T12:02:02.199Z,34.60
2018-07-25T12:04:30.646Z,33.90
2018-07-25T12:07:06.271Z,34.60
2018-07-25T12:09:41.765Z,34.10
2018-07-25T12:12:10.167Z,33.30
2018-07-25T12:14:38.467Z,33.50
2018-07-25T12:17:06.865Z,34.40
2018-07-25T12:19:35.244Z,33.00
2018-07-25T12:22:03.720Z,34.30
2018-07-25T12:27:00.064Z,33.30
2018-07-25T12:29:28.411Z,32.80
2018-07-25T12:31:56.745Z,33.70
2018-07-25T12:36:53.361Z,35.40
2018-07-25T12:39:21.659Z,33.70
2018-07-25T12:41:49.995Z,34.60
2018-07-25T12:44:18.498Z,33.40
2018-07-25T12:46:46.813Z,32.70
2018-07-25T12:49:15.086Z,33.00
2018-07-25T12:51:43.361Z,34.10
2018-07-25T12:54:11.720Z,35.00
2018-07-25T12:56:39.936Z,35.90
2018-07-25T12:59:08.212Z,35.30
2018-07-25T13:01:36.529Z,35.10
2018-07-25T13:04:05.272Z,33.80
2018-07-25T13:06:33.633Z,34.50
2018-07-25T13:09:02.084Z,33.10
2018-07-25T13:11:30.898Z,32.00
2018-07-25T13:13:59.189Z,32.70
2018-07-25T13:16:27.460Z,32.90
2018-07-25T13:18:55.703Z,32.70
2018-07-25T13:21:23.948Z,32.70
2018-07-25T13:23:52.246Z,31.40
2018-07-25T13:26:20.483Z,32.70
2018-07-25T13:28:48.776Z,33.20
2018-07-25T13:31:17.009Z,32.70
2018-07-25T13:33:45.283Z,32.40
2018-07-25T13:36:13.571Z,31.50
2018-07-25T13:38:41.840Z,31.30
2018-07-25T13:41:10.133Z,32.80
2018-07-25T13:43:38.597Z,31.40
2018-07-25T13:46:07.023Z,30.70
2018-07-25T13:48:35.333Z,31.50
2018-07-25T13:51:03.619Z,30.80
2018-07-25T13:53:31.896Z,30.80
2018-07-25T13:56:00.156Z,31.30
2018-07-25T13:58:28.645Z,31.30
2018-07-25T14:00:56.917Z,30.70
2018-07-25T14:03:25.201Z,32.20
2018-07-25T14:05:53.566Z,32.20
2018-07-25T14:08:22.437Z,32.80
2018-07-25T14:10:50.764Z,32.70
2018-07-25T14:13:19.154Z,32.80
2018-07-25T14:15:47.508Z,32.60
2018-07-25T14:18:15.839Z,32.40
2018-07-25T14:20:46.322Z,31.50
2018-07-25T14:23:14.595Z,33.50
2018-07-25T14:25:42.868Z,32.40
2018-07-25T14:28:11.241Z,31.10
2018-07-25T14:30:39.606Z,31.90
2018-07-25T14:33:07.822Z,32.00
2018-07-25T14:35:36.272Z,30.90
2018-07-25T14:38:04.740Z,30.70
2018-07-25T14:40:33.094Z,31.60
2018-07-25T14:43:01.438Z,31.80
2018-07-25T14:45:29.920Z,31.80
2018-07-25T14:47:58.216Z,31.60
2018-07-25T14:50:26.585Z,31.80
2018-07-25T14:52:54.944Z,31.20
2018-07-25T14:55:23.333Z,32.70
2018-07-25T14:57:51.712Z,31.20
2018-07-25T15:00:20.163Z,31.90
2018-07-25T15:02:48.605Z,31.80
2018-07-25T15:05:16.854Z,31.90
2018-07-25T15:07:45.223Z,32.80
2018-07-25T15:12:42.860Z,31.20
2018-07-25T15:15:12.101Z,31.20
2018-07-25T15:17:40.500Z,30.90
2018-07-25T15:20:09.806Z,31.20
2018-07-25T15:22:38.518Z,32.00
2018-07-25T15:25:13.476Z,31.40
2018-07-25T15:27:42.854Z,31.60
2018-07-25T15:30:11.819Z,31.50
2018-07-25T15:32:40.717Z,31.80
2018-07-25T15:35:10.305Z,31.70
2018-07-25T15:37:39.281Z,31.80
2018-07-25T15:40:08.325Z,31.60
2018-07-25T15:42:36.781Z,31.30
2018-07-25T15:45:05.658Z,33.00
2018-07-25T15:47:34.369Z,32.60
2018-07-25T15:50:03.645Z,32.30
2018-07-25T15:52:32.000Z,32.00
2018-07-25T15:55:00.325Z,32.30
2018-07-25T15:57:28.676Z,31.70
2018-07-25T15:59:59.011Z,31.60
2018-07-25T16:02:27.345Z,31.90
2018-07-25T16:04:55.643Z,32.20
2018-07-25T16:07:24.004Z,31.60
2018-07-25T16:09:52.303Z,30.50
2018-07-25T16:12:20.739Z,31.10
2018-07-25T16:14:49.095Z,31.60
2018-07-25T16:17:18.453Z,31.50
2018-07-25T16:19:49.117Z,31.10
2018-07-25T16:22:17.459Z,31.40
2018-07-25T16:24:45.772Z,32.40
2018-07-25T16:27:14.126Z,32.20
2018-07-25T16:29:42.537Z,32.20
2018-07-25T16:32:10.993Z,33.30
2018-07-25T16:34:39.409Z,33.10
2018-07-25T16:37:07.758Z,32.80
2018-07-25T16:39:36.127Z,32.60
2018-07-25T16:42:04.770Z,32.50
2018-07-25T16:44:33.097Z,32.90
2018-07-25T16:47:01.456Z,31.90
2018-07-25T16:49:29.730Z,32.60
2018-07-25T16:51:58.010Z,32.80
2018-07-25T16:54:26.293Z,32.00
2018-07-25T16:59:22.579Z,32.50
2018-07-25T17:01:50.870Z,31.90
2018-07-25T17:04:19.129Z,32.40
2018-07-25T17:06:47.417Z,32.00
2018-07-25T17:09:15.709Z,32.10
2018-07-25T17:11:44.029Z,31.40
2018-07-25T17:16:40.297Z,32.50
2018-07-25T17:19:08.612Z,33.10
2018-07-25T17:21:37.035Z,32.90
2018-07-25T17:24:05.357Z,33.60
2018-07-25T17:26:33.612Z,33.00
2018-07-25T17:29:01.867Z,33.30
2018-07-25T17:31:30.831Z,33.20
2018-07-25T17:33:59.109Z,32.90
2018-07-25T17:36:27.381Z,33.10
2018-07-25T17:38:55.634Z,33.50
2018-07-25T17:41:23.969Z,33.70
2018-07-25T17:43:52.243Z,33.70
2018-07-25T17:46:20.840Z,33.30
2018-07-25T17:48:49.534Z,33.50
2018-07-25T17:51:17.802Z,33.50
2018-07-25T17:53:46.064Z,33.60
2018-07-25T17:56:14.355Z,34.60
2018-07-25T17:58:42.628Z,34.30
2018-07-25T18:01:11.012Z,34.80
2018-07-25T18:03:39.430Z,34.70
2018-07-25T18:06:08.844Z,34.60
2018-07-25T18:08:37.165Z,34.70
2018-07-25T18:11:05.795Z,34.90
2018-07-25T18:13:39.473Z,34.80
2018-07-25T18:16:08.058Z,35.40
2018-07-25T18:18:39.456Z,36.00
2018-07-25T18:21:07.735Z,36.10
2018-07-25T18:23:37.670Z,36.50
2018-07-25T18:26:06.245Z,36.50
2018-07-25T18:28:38.161Z,37.20
2018-07-25T18:31:06.606Z,37.20
2018-07-25T18:33:34.981Z,37.10
2018-07-25T18:36:03.396Z,37.70
2018-07-25T18:38:31.696Z,37.80
2018-07-25T18:41:01.364Z,37.90
2018-07-25T18:43:29.697Z,39.20
2018-07-25T18:45:58.057Z,38.10
2018-07-25T18:48:26.365Z,38.50
2018-07-25T18:50:54.646Z,38.80
2018-07-25T18:53:22.989Z,38.80
2018-07-25T18:55:51.386Z,38.90
2018-07-25T18:58:19.638Z,38.80
2018-07-25T19:00:47.940Z,45.80
2018-07-25T19:03:16.225Z,46.50
2018-07-25T19:05:44.560Z,47.70
2018-07-25T19:08:12.821Z,45.00
2018-07-25T19:10:41.302Z,45.90
2018-07-25T19:13:15.400Z,45.80
2018-07-25T19:15:43.742Z,44.00
2018-07-25T19:18:12.044Z,45.40
2018-07-25T19:20:40.493Z,45.30
2018-07-25T19:23:08.739Z,45.30
2018-07-25T19:25:37.177Z,46.40
2018-07-25T19:28:05.637Z,46.50
2018-07-25T19:30:33.938Z,46.20
2018-07-25T19:33:02.383Z,45.60
2018-07-25T19:35:30.735Z,46.20
2018-07-25T19:37:58.932Z,46.30
2018-07-25T19:40:27.293Z,45.50
2018-07-25T19:42:55.576Z,47.10
2018-07-25T19:45:24.112Z,46.00
2018-07-25T19:47:52.403Z,46.40
2018-07-25T19:50:20.827Z,46.20
2018-07-25T19:52:49.665Z,46.80
2018-07-25T19:55:18.148Z,46.60
2018-07-25T19:57:47.115Z,47.20
2018-07-25T20:00:16.709Z,47.40
2018-07-25T20:02:44.793Z,48.20
2018-07-25T20:05:13.193Z,47.90
2018-07-25T20:10:09.543Z,48.30
2018-07-25T20:12:38.070Z,48.50
2018-07-25T20:15:12.192Z,48.40
2018-07-25T20:17:41.827Z,48.30
2018-07-25T20:20:10.659Z,48.70
2018-07-25T20:22:39.245Z,48.90
2018-07-25T20:25:07.595Z,49.20
2018-07-25T20:27:36.232Z,49.50
2018-07-25T20:30:06.208Z,49.60
2018-07-25T20:32:35.280Z,49.50
2018-07-25T20:35:03.943Z,49.40
2018-07-25T20:37:32.289Z,49.80
2018-07-25T20:40:00.589Z,49.50
2018-07-25T20:42:30.110Z,49.50
2018-07-25T20:44:58.470Z,49.30
2018-07-25T20:47:26.881Z,49.80
2018-07-25T20:49:55.372Z,49.70
2018-07-25T20:52:23.796Z,49.30
2018-07-25T20:54:52.216Z,50.00
2018-07-25T20:57:20.612Z,50.60
2018-07-25T20:59:49.040Z,50.60
2018-07-25T21:02:17.354Z,50.80
2018-07-25T21:04:45.668Z,52.00
2018-07-25T21:07:14.119Z,51.70
2018-07-25T21:09:44.395Z,52.50
2018-07-25T21:12:12.760Z,52.50
2018-07-25T21:14:41.184Z,52.50
2018-07-25T21:17:09.532Z,52.20
2018-07-25T21:19:38.159Z,53.00
2018-07-25T21:22:06.749Z,53.00
2018-07-25T21:24:35.025Z,53.90
2018-07-25T21:27:03.440Z,52.70
2018-07-25T21:29:31.781Z,52.60
2018-07-25T21:32:00.115Z,52.90
2018-07-25T21:34:28.488Z,53.30
2018-07-25T21:36:56.817Z,53.50
2018-07-25T21:39:25.123Z,54.00
2018-07-25T21:41:53.473Z,54.20
2018-07-25T21:44:21.750Z,53.80
2018-07-25T21:46:50.181Z,54.70
2018-07-25T21:49:18.503Z,54.40
2018-07-25T21:51:46.786Z,54.10
2018-07-25T21:54:15.140Z,54.70
2018-07-25T21:56:43.423Z,54.90
2018-07-25T21:59:11.737Z,54.60
2018-07-25T22:01:40.116Z,55.40
2018-07-25T22:04:08.464Z,55.30
2018-07-25T22:06:36.864Z,55.50
2018-07-25T22:11:35.564Z,55.00
2018-07-25T22:14:03.951Z,55.40
2018-07-25T22:16:32.213Z,55.50
2018-07-25T22:19:00.539Z,55.90
2018-07-25T22:21:28.879Z,55.80
2018-07-25T22:23:58.284Z,55.90
2018-07-25T22:26:26.660Z,55.80
2018-07-25T22:28:55.044Z,55.90
2018-07-25T22:31:23.502Z,55.80
2018-07-25T22:33:52.801Z,55.90
2018-07-25T22:36:22.153Z,56.20
2018-07-25T22:38:50.525Z,56.80
2018-07-25T22:41:18.935Z,56.70
2018-07-25T22:43:47.253Z,56.60
2018-07-25T22:46:15.676Z,56.90
2018-07-25T22:48:43.992Z,56.90
2018-07-25T22:51:12.277Z,57.40
2018-07-25T22:53:40.528Z,58.10
2018-07-25T22:56:08.957Z,57.20
2018-07-25T22:58:37.345Z,57.30
2018-07-25T23:01:05.653Z,57.50
2018-07-25T23:03:34.012Z,57.80
2018-07-25T23:06:02.320Z,57.40
2018-07-25T23:08:30.630Z,58.00
2018-07-25T23:10:59.031Z,57.90
2018-07-25T23:13:27.428Z,58.40
2018-07-25T23:15:55.783Z,58.30
2018-07-25T23:18:24.151Z,58.80
2018-07-25T23:20:52.513Z,59.10
2018-07-25T23:23:20.910Z,58.70
2018-07-25T23:25:49.262Z,59.10
2018-07-25T23:28:17.520Z,59.10
2018-07-25T23:30:45.781Z,58.90
2018-07-25T23:33:14.011Z,59.10
2018-07-25T23:35:42.293Z,58.60
2018-07-25T23:38:10.765Z,59.10
2018-07-25T23:40:39.181Z,59.30
2018-07-25T23:43:08.570Z,59.50
2018-07-25T23:45:37.004Z,59.70
2018-07-25T23:48:05.352Z,59.40
2018-07-25T23:50:33.660Z,59.90
2018-07-25T23:53:01.960Z,60.10
2018-07-25T23:55:30.292Z,59.90
2018-07-25T23:57:58.600Z,59.90
